EDT,Max TemperatureF,Mean TemperatureF,Min TemperatureF,Max Dew PointF,MeanDew PointF,Min DewpointF,Max Humidity, Mean Humidity, Min Humidity, Max Sea Level PressureIn, Mean Sea Level PressureIn, Min Sea Level PressureIn, Max VisibilityMiles, Mean VisibilityMiles, Min VisibilityMiles, Max Wind SpeedMPH, Mean Wind SpeedMPH, Max Gust SpeedMPH,PrecipitationIn, CloudCover, Events, WindDirDegrees
2013-5-1,70,61,52,55,49,41,93,69,44,30.40,30.31,30.23,10,10,2,20,10,23,T,7,,40
2013-5-2,70,60,50,52,49,45,93,70,47,30.43,30.38,30.32,10,10,7,13,6,17,0.00,7,,43
2013-5-3,69,58,46,52,45,38,93,63,32,30.35,30.32,30.29,10,10,8,21,9,25,0.00,6,,61
2013-5-4,67,56,44,50,45,42,93,73,52,30.30,30.24,30.17,10,10,10,17,9,24,0.00,6,,48
2013-5-5,63,54,45,51,46,39,93,77,60,30.20,30.17,30.14,10,10,10,17,10,21,0.00,7,,48
2013-5-6,72,63,54,61,57,51,97,77,57,30.14,30.04,29.96,10,7,1,23,11,32,0.31,8,Rain,68
2013-5-7,74,66,57,62,59,56,100,79,57,29.98,29.92,29.85,10,8,2,20,8,25,0.76,7,Rain-Thunderstorm,92
2013-5-8,70,61,52,59,55,51,100,78,55,30.02,29.98,29.93,10,4,0,16,4,21,0.44,6,Fog-Rain,142
2013-5-9,79,67,54,59,55,53,100,71,42,30.04,29.99,29.96,10,4,0,16,6,23,0.00,5,Fog,255
2013-5-10,87,72,57,61,58,54,90,64,37,30.05,29.99,29.92,10,10,10,18,7,25,0.00,6,,190
2013-5-11,83,73,62,64,62,58,84,66,47,29.94,29.84,29.77,10,10,7,23,10,31,0.09,7,Rain,212
2013-5-12,73,62,51,61,48,30,93,60,26,30.06,29.87,29.76,10,10,8,20,8,24,0.08,5,Rain,300
2013-5-13,65,53,41,41,33,28,89,58,27,30.19,30.11,30.06,10,10,10,23,6,23,0.00,4,,312
2013-5-14,69,55,41,42,34,26,73,50,27,30.25,30.17,30.08,10,10,10,16,5,20,0.00,4,,239
2013-5-15,88,72,55,61,53,40,62,51,39,30.06,29.93,29.80,10,10,10,23,12,29,0.00,3,,206
2013-5-16,90,79,67,64,60,53,81,56,31,29.96,29.88,29.82,10,10,6,37,7,46,0.03,5,Rain-Thunderstorm,273
2013-5-17,84,74,63,63,56,47,93,64,34,30.17,30.07,29.94,10,10,10,14,6,16,T,5,,100
2013-5-18,67,64,60,64,61,55,100,94,87,30.22,30.18,30.14,10,7,1,13,6,15,0.53,8,Rain-Thunderstorm,79
2013-5-19,78,71,63,69,65,63,100,85,69,30.20,30.16,30.10,10,5,0,18,3,23,0.22,8,Fog-Rain,111
2013-5-20,82,74,65,70,67,64,97,80,62,30.13,30.08,30.02,10,9,5,18,8,21,0.03,7,Rain,180
2013-5-21,83,76,68,70,68,66,93,79,65,30.05,30.00,29.94,10,10,5,13,8,17,0.00,7,,199
2013-5-22,86,78,70,70,68,66,97,78,59,30.01,29.95,29.89,10,9,6,18,11,24,T,5,,197
2013-5-23,79,74,68,70,67,65,90,77,64,29.96,29.89,29.81,10,10,5,16,8,20,0.01,6,Rain-Thunderstorm,176
2013-5-24,69,60,50,66,52,34,93,68,43,30.18,29.94,29.79,10,10,2,29,12,36,T,6,Rain,321
2013-5-25,72,59,45,39,33,31,62,43,23,30.25,30.19,30.12,10,10,10,24,11,31,0.00,3,,319
2013-5-26,76,62,47,44,37,32,71,46,21,30.27,30.21,30.17,10,10,10,16,6,21,0.00,4,,322
2013-5-27,79,62,45,56,48,42,92,64,36,30.30,30.25,30.19,10,10,10,14,4,23,T,6,,229
2013-5-28,88,74,60,65,60,54,78,62,46,30.23,30.17,30.12,10,10,10,20,11,24,0.00,5,,196
2013-5-29,90,79,67,65,63,62,87,65,43,30.19,30.16,30.13,10,10,10,18,10,24,0.00,2,,209
2013-5-30,90,78,66,66,64,62,87,66,44,30.25,30.20,30.17,10,10,10,16,9,23,0.00,2,,208
2013-5-31,92,80,67,67,64,62,90,64,38,30.21,30.16,30.09,10,10,9,20,9,28,0.00,2,,203